sensor_id;sensor_type;location;lat;lon;timestamp;pressure;altitude;pressure_sealevel;temperature;humidity
44734;BME280;30462;52.446;-1.930;2023-07-08T00:00:18;99865.45313;;;;
44734;BME280;30462;52.446;-1.930;2023-07-08T00:01:19;99859.28906;;;;
44734;BME280;30462;52.446;-1.930;2023-07-08T00:02:18;99861.09766;;;;
44734;BME280;30462;52.446;-1.930;2023-07-08T00:03:18;99860.75;;;;
44734;BME280;30462;52.446;-1.930;2023-07-08T00:04:18;99859.91016;;;;
44734;BME280;30462;52.446;-1.930;2023-07-08T00:05:19;99856.77344;;;;
44734;BME280;30462;52.446;-1.930;2023-07-08T00:06:19;99858.70703;;;;
44734;BME280;30462;52.446;-1.930;2023-07-08T00:07:18;99857.63672;;;;
44734;BME280;30462;52.446;-1.930;2023-07-08T00:08:19;99858.43359;;;;
44734;BME280;30462;52.446;-1.930;2023-07-08T00:09:18;99862.5;;;;
44734;BME280;30462;52.446;-1.930;2023-07-08T00:10:18;99856.64453;;;;
44734;BME280;30462;52.446;-1.930;2023-07-08T00:11:18;99858.09375;;;;
44734;BME280;30462;52.446;-1.930;2023-07-08T00:12:18;99860.75391;;;;
44734;BME280;30462;52.446;-1.930;2023-07-08T00:13:18;99856.57031;;;;
44734;BME280;30462;52.446;-1.930;2023-07-08T00:14:18;99857.375;;;;
44734;BME280;30462;52.446;-1.930;2023-07-08T00:15:18;99858.65234;;;;
44734;BME280;30462;52.446;-1.930;2023-07-08T00:16:18;99859.03906;;;;
44734;BME280;30462;52.446;-1.930;2023-07-08T00:17:18;99855.07813;;;;
44734;BME280;30462;52.446;-1.930;2023-07-08T00:18:18;99852.80859;;;;
44734;BME280;30462;52.446;-1.930;2023-07-08T00:19:18;99855.91016;;;;
44734;BME280;30462;52.446;-1.930;2023-07-08T00:20:19;99851.85938;;;;
44734;BME280;30462;52.446;-1.930;2023-07-08T00:21:18;99851.89063;;;;
44734;BME280;30462;52.446;-1.930;2023-07-08T00:22:18;99850.07813;;;;
44734;BME280;30462;52.446;-1.930;2023-07-08T00:23:18;99849.96484;;;;
44734;BME280;30462;52.446;-1.930;2023-07-08T00:24:18;99847.74219;;;;
44734;BME280;30462;52.446;-1.930;2023-07-08T00:25:18;99851.28516;;;;
44734;BME280;30462;52.446;-1.930;2023-07-08T00:26:21;99845.27344;;;;
44734;BME280;30462;52.446;-1.930;2023-07-08T00:27:17;99847.57422;;;;
44734;BME280;30462;52.446;-1.930;2023-07-08T00:28:18;99844.07422;;;;
44734;BME280;30462;52.446;-1.930;2023-07-08T00:29:18;99845.17969;;;;
44734;BME280;30462;52.446;-1.930;2023-07-08T00:30:21;99843.79297;;;;
44734;BME280;30462;52.446;-1.930;2023-07-08T00:31:17;99843.45703;;;;
44734;BME280;30462;52.446;-1.930;2023-07-08T00:32:17;99844.52344;;;;
44734;BME280;30462;52.446;-1.930;2023-07-08T00:33:18;99844.85156;;;;
44734;BME280;30462;52.446;-1.930;2023-07-08T00:34:18;99843.21875;;;;
44734;BME280;30462;52.446;-1.930;2023-07-08T00:35:17;99841.16797;;;;
44734;BME280;30462;52.446;-1.930;2023-07-08T00:36:17;99841.13672;;;;
44734;BME280;30462;52.446;-1.930;2023-07-08T00:37:18;99837.03516;;;;
44734;BME280;30462;52.446;-1.930;2023-07-08T00:38:23;99837.40625;;;;
44734;BME280;30462;52.446;-1.930;2023-07-08T00:39:18;99842.39844;;;;
44734;BME280;30462;52.446;-1.930;2023-07-08T00:40:19;99837.45313;;;;
44734;BME280;30462;52.446;-1.930;2023-07-08T00:41:18;99833.08594;;;;
44734;BME280;30462;52.446;-1.930;2023-07-08T00:42:18;99830.83984;;;;
44734;BME280;30462;52.446;-1.930;2023-07-08T00:43:18;99836.28906;;;;
44734;BME280;30462;52.446;-1.930;2023-07-08T00:44:18;99829.0625;;;;
44734;BME280;30462;52.446;-1.930;2023-07-08T00:45:22;99830.86328;;;;
44734;BME280;30462;52.446;-1.930;2023-07-08T00:47:18;99825.91016;;;;
44734;BME280;30462;52.446;-1.930;2023-07-08T00:48:21;99826.60547;;;;
44734;BME280;30462;52.446;-1.930;2023-07-08T00:50:17;99825.95703;;;;
44734;BME280;30462;52.446;-1.930;2023-07-08T00:51:17;99823.80078;;;;
44734;BME280;30462;52.446;-1.930;2023-07-08T00:52:19;99824.38672;;;;
44734;BME280;30462;52.446;-1.930;2023-07-08T00:53:22;99825.80859;;;;
44734;BME280;30462;52.446;-1.930;2023-07-08T00:54:18;99823.19141;;;;
44734;BME280;30462;52.446;-1.930;2023-07-08T00:55:18;99826.03125;;;;
44734;BME280;30462;52.446;-1.930;2023-07-08T00:56:19;99821.23438;;;;
44734;BME280;30462;52.446;-1.930;2023-07-08T00:57:18;99820.05078;;;;
44734;BME280;30462;52.446;-1.930;2023-07-08T00:58:18;99815.125;;;;
44734;BME280;30462;52.446;-1.930;2023-07-08T00:59:20;99815.82031;;;;
44734;BME280;30462;52.446;-1.930;2023-07-08T01:00:18;99811.95703;;;;
44734;BME280;30462;52.446;-1.930;2023-07-08T01:01:18;99809.67969;;;;
44734;BME280;30462;52.446;-1.930;2023-07-08T01:02:19;99810.50391;;;;
44734;BME280;30462;52.446;-1.930;2023-07-08T01:03:17;99812.53125;;;;
44734;BME280;30462;52.446;-1.930;2023-07-08T01:04:18;99810.41797;;;;
44734;BME280;30462;52.446;-1.930;2023-07-08T01:05:20;99806.24219;;;;
44734;BME280;30462;52.446;-1.930;2023-07-08T01:06:18;99810.86328;;;;
44734;BME280;30462;52.446;-1.930;2023-07-08T01:07:18;99810.28516;;;;
44734;BME280;30462;52.446;-1.930;2023-07-08T01:08:18;99810.72266;;;;
44734;BME280;30462;52.446;-1.930;2023-07-08T01:09:18;99809.75781;;;;
44734;BME280;30462;52.446;-1.930;2023-07-08T01:10:20;99806.07031;;;;
44734;BME280;30462;52.446;-1.930;2023-07-08T01:11:17;99806.83984;;;;
44734;BME280;30462;52.446;-1.930;2023-07-08T01:12:19;99803.00781;;;;
44734;BME280;30462;52.446;-1.930;2023-07-08T01:13:18;99803.78516;;;;
44734;BME280;30462;52.446;-1.930;2023-07-08T01:14:19;99802.54297;;;;
44734;BME280;30462;52.446;-1.930;2023-07-08T01:15:17;99801.86719;;;;
44734;BME280;30462;52.446;-1.930;2023-07-08T01:16:18;99802.58203;;;;
44734;BME280;30462;52.446;-1.930;2023-07-08T01:17:18;99803.44141;;;;
44734;BME280;30462;52.446;-1.930;2023-07-08T01:18:18;99802.25781;;;;
44734;BME280;30462;52.446;-1.930;2023-07-08T01:19:19;99804.98047;;;;
44734;BME280;30462;52.446;-1.930;2023-07-08T01:20:18;99801.375;;;;
44734;BME280;30462;52.446;-1.930;2023-07-08T01:22:18;99807.27734;;;;
44734;BME280;30462;52.446;-1.930;2023-07-08T01:23:18;99804.89063;;;;
44734;BME280;30462;52.446;-1.930;2023-07-08T01:24:18;99806.24219;;;;
44734;BME280;30462;52.446;-1.930;2023-07-08T01:25:18;99805.74609;;;;
44734;BME280;30462;52.446;-1.930;2023-07-08T01:26:18;99804.44141;;;;
44734;BME280;30462;52.446;-1.930;2023-07-08T01:27:18;99800.03906;;;;
44734;BME280;30462;52.446;-1.930;2023-07-08T01:28:17;99799.74609;;;;
44734;BME280;30462;52.446;-1.930;2023-07-08T01:29:18;99798.19141;;;;
44734;BME280;30462;52.446;-1.930;2023-07-08T01:30:18;99800.28516;;;;
44734;BME280;30462;52.446;-1.930;2023-07-08T01:31:18;99794.1875;;;;
44734;BME280;30462;52.446;-1.930;2023-07-08T01:32:17;99799.875;;;;
44734;BME280;30462;52.446;-1.930;2023-07-08T01:33:19;99797.90234;;;;
44734;BME280;30462;52.446;-1.930;2023-07-08T01:34:18;99799.48438;;;;
44734;BME280;30462;52.446;-1.930;2023-07-08T01:35:18;99800.46094;;;;
44734;BME280;30462;52.446;-1.930;2023-07-08T01:36:18;99799.46484;;;;
44734;BME280;30462;52.446;-1.930;2023-07-08T01:37:17;99800.25391;;;;
44734;BME280;30462;52.446;-1.930;2023-07-08T01:38:18;99799.94922;;;;
44734;BME280;30462;52.446;-1.930;2023-07-08T01:39:19;99797.44141;;;;
44734;BME280;30462;52.446;-1.930;2023-07-08T01:41:18;99795.76172;;;;
44734;BME280;30462;52.446;-1.930;2023-07-08T01:42:18;99792.24219;;;;
44734;BME280;30462;52.446;-1.930;2023-07-08T01:43:18;99794.10938;;;;
44734;BME280;30462;52.446;-1.930;2023-07-08T01:45:18;99788.24219;;;;
44734;BME280;30462;52.446;-1.930;2023-07-08T01:46:19;99788.39453;;;;
44734;BME280;30462;52.446;-1.930;2023-07-08T01:47:19;99786.88281;;;;
44734;BME280;30462;52.446;-1.930;2023-07-08T01:48:18;99785.38281;;;;
44734;BME280;30462;52.446;-1.930;2023-07-08T01:49:18;99777.69922;;;;
44734;BME280;30462;52.446;-1.930;2023-07-08T01:50:18;99780.75391;;;;
44734;BME280;30462;52.446;-1.930;2023-07-08T01:51:18;99779.75781;;;;
44734;BME280;30462;52.446;-1.930;2023-07-08T01:52:18;99775.375;;;;
44734;BME280;30462;52.446;-1.930;2023-07-08T01:53:19;99775.50391;;;;
44734;BME280;30462;52.446;-1.930;2023-07-08T01:54:18;99775.44141;;;;
44734;BME280;30462;52.446;-1.930;2023-07-08T01:56:18;99774.77344;;;;
44734;BME280;30462;52.446;-1.930;2023-07-08T01:57:18;99772.54297;;;;
44734;BME280;30462;52.446;-1.930;2023-07-08T01:58:18;99769.80859;;;;
44734;BME280;30462;52.446;-1.930;2023-07-08T01:59:18;99771.32813;;;;
44734;BME280;30462;52.446;-1.930;2023-07-08T02:00:18;99769.84375;;;;
44734;BME280;30462;52.446;-1.930;2023-07-08T02:01:18;99768.5625;;;;
44734;BME280;30462;52.446;-1.930;2023-07-08T02:02:18;99768.06641;;;;
44734;BME280;30462;52.446;-1.930;2023-07-08T02:03:17;99768.32031;;;;
44734;BME280;30462;52.446;-1.930;2023-07-08T02:04:18;99764.90625;;;;
44734;BME280;30462;52.446;-1.930;2023-07-08T02:05:18;99767.16797;;;;
44734;BME280;30462;52.446;-1.930;2023-07-08T02:06:18;99764.55078;;;;
44734;BME280;30462;52.446;-1.930;2023-07-08T02:07:18;99769.01953;;;;
44734;BME280;30462;52.446;-1.930;2023-07-08T02:08:18;99760.82813;;;;
44734;BME280;30462;52.446;-1.930;2023-07-08T02:09:17;99759.64063;;;;
44734;BME280;30462;52.446;-1.930;2023-07-08T02:10:17;99760.60547;;;;
44734;BME280;30462;52.446;-1.930;2023-07-08T02:11:18;99759.84375;;;;
44734;BME280;30462;52.446;-1.930;2023-07-08T02:12:17;99755.66797;;;;
44734;BME280;30462;52.446;-1.930;2023-07-08T02:13:18;99756.79297;;;;
44734;BME280;30462;52.446;-1.930;2023-07-08T02:14:18;99758.30469;;;;
44734;BME280;30462;52.446;-1.930;2023-07-08T02:15:18;99754.22266;;;;
44734;BME280;30462;52.446;-1.930;2023-07-08T02:16:18;99759.12891;;;;
44734;BME280;30462;52.446;-1.930;2023-07-08T02:17:18;99759.67188;;;;
44734;BME280;30462;52.446;-1.930;2023-07-08T02:18:18;99762.03516;;;;
44734;BME280;30462;52.446;-1.930;2023-07-08T02:19:18;99765.14844;;;;
44734;BME280;30462;52.446;-1.930;2023-07-08T02:20:18;99767.49609;;;;
44734;BME280;30462;52.446;-1.930;2023-07-08T02:21:18;99767.0625;;;;
44734;BME280;30462;52.446;-1.930;2023-07-08T02:22:18;99760.61719;;;;
44734;BME280;30462;52.446;-1.930;2023-07-08T02:23:18;99755.61719;;;;
44734;BME280;30462;52.446;-1.930;2023-07-08T02:24:18;99754.53906;;;;
44734;BME280;30462;52.446;-1.930;2023-07-08T02:25:18;99755.77734;;;;
44734;BME280;30462;52.446;-1.930;2023-07-08T02:26:18;99758.05078;;;;
44734;BME280;30462;52.446;-1.930;2023-07-08T02:27:18;99754.82813;;;;
44734;BME280;30462;52.446;-1.930;2023-07-08T02:28:17;99759.72266;;;;
44734;BME280;30462;52.446;-1.930;2023-07-08T02:29:18;99760.45313;;;;
44734;BME280;30462;52.446;-1.930;2023-07-08T02:30:18;99758.62109;;;;
44734;BME280;30462;52.446;-1.930;2023-07-08T02:31:18;99755.98438;;;;
44734;BME280;30462;52.446;-1.930;2023-07-08T02:32:18;99764.67578;;;;
44734;BME280;30462;52.446;-1.930;2023-07-08T02:33:18;99761.56641;;;;
44734;BME280;30462;52.446;-1.930;2023-07-08T02:34:18;99760.58984;;;;
44734;BME280;30462;52.446;-1.930;2023-07-08T02:35:17;99753.99219;;;;
44734;BME280;30462;52.446;-1.930;2023-07-08T02:36:18;99749.27734;;;;
44734;BME280;30462;52.446;-1.930;2023-07-08T02:37:18;99750.71094;;;;
44734;BME280;30462;52.446;-1.930;2023-07-08T02:38:18;99753.73438;;;;
44734;BME280;30462;52.446;-1.930;2023-07-08T02:39:18;99751.94531;;;;
44734;BME280;30462;52.446;-1.930;2023-07-08T02:40:18;99751.27344;;;;
44734;BME280;30462;52.446;-1.930;2023-07-08T02:41:17;99748.08984;;;;
44734;BME280;30462;52.446;-1.930;2023-07-08T02:42:17;99753.45313;;;;
44734;BME280;30462;52.446;-1.930;2023-07-08T02:43:18;99749.59375;;;;
44734;BME280;30462;52.446;-1.930;2023-07-08T02:44:18;99750.10156;;;;
44734;BME280;30462;52.446;-1.930;2023-07-08T02:45:18;99750.31641;;;;
44734;BME280;30462;52.446;-1.930;2023-07-08T02:46:17;99749.94922;;;;
44734;BME280;30462;52.446;-1.930;2023-07-08T02:47:18;99748.88672;;;;
44734;BME280;30462;52.446;-1.930;2023-07-08T02:48:18;99748.87891;;;;
44734;BME280;30462;52.446;-1.930;2023-07-08T02:49:18;99751.91016;;;;
44734;BME280;30462;52.446;-1.930;2023-07-08T02:50:18;99750.45313;;;;
44734;BME280;30462;52.446;-1.930;2023-07-08T02:51:18;99747.40625;;;;
44734;BME280;30462;52.446;-1.930;2023-07-08T02:52:18;99751.40234;;;;
44734;BME280;30462;52.446;-1.930;2023-07-08T02:53:18;99748.77344;;;;
44734;BME280;30462;52.446;-1.930;2023-07-08T02:54:18;99748.09766;;;;
44734;BME280;30462;52.446;-1.930;2023-07-08T02:55:18;99744.17188;;;;
44734;BME280;30462;52.446;-1.930;2023-07-08T02:56:17;99746.51953;;;;
44734;BME280;30462;52.446;-1.930;2023-07-08T02:57:18;99747.69141;;;;
44734;BME280;30462;52.446;-1.930;2023-07-08T02:58:18;99745.76953;;;;
44734;BME280;30462;52.446;-1.930;2023-07-08T02:59:18;99746.33984;;;;
44734;BME280;30462;52.446;-1.930;2023-07-08T03:00:18;99747.46484;;;;
44734;BME280;30462;52.446;-1.930;2023-07-08T03:01:18;99750.05469;;;;
44734;BME280;30462;52.446;-1.930;2023-07-08T03:02:18;99740.35547;;;;
44734;BME280;30462;52.446;-1.930;2023-07-08T03:03:17;99738.14844;;;;
44734;BME280;30462;52.446;-1.930;2023-07-08T03:04:18;99742.26563;;;;
44734;BME280;30462;52.446;-1.930;2023-07-08T03:05:18;99740.04688;;;;
44734;BME280;30462;52.446;-1.930;2023-07-08T03:06:18;99736.96484;;;;
44734;BME280;30462;52.446;-1.930;2023-07-08T03:07:18;99740.63281;;;;
44734;BME280;30462;52.446;-1.930;2023-07-08T03:08:17;99740.63281;;;;
44734;BME280;30462;52.446;-1.930;2023-07-08T03:09:18;99738.82422;;;;
44734;BME280;30462;52.446;-1.930;2023-07-08T03:10:18;99735.875;;;;
44734;BME280;30462;52.446;-1.930;2023-07-08T03:11:18;99737.52734;;;;
44734;BME280;30462;52.446;-1.930;2023-07-08T03:12:18;99736.82031;;;;
44734;BME280;30462;52.446;-1.930;2023-07-08T03:13:18;99734.89844;;;;
44734;BME280;30462;52.446;-1.930;2023-07-08T03:14:18;99732.11719;;;;
44734;BME280;30462;52.446;-1.930;2023-07-08T03:15:17;99734.69922;;;;
44734;BME280;30462;52.446;-1.930;2023-07-08T03:16:18;99731.42188;;;;
44734;BME280;30462;52.446;-1.930;2023-07-08T03:17:18;99733.83594;;;;
44734;BME280;30462;52.446;-1.930;2023-07-08T03:18:18;99731.03906;;;;
44734;BME280;30462;52.446;-1.930;2023-07-08T03:19:18;99733.36719;;;;
44734;BME280;30462;52.446;-1.930;2023-07-08T03:20:17;99726.57031;;;;
44734;BME280;30462;52.446;-1.930;2023-07-08T03:21:18;99726.6875;;;;
44734;BME280;30462;52.446;-1.930;2023-07-08T03:22:18;99725.64063;;;;
44734;BME280;30462;52.446;-1.930;2023-07-08T03:23:18;99728.79297;;;;
44734;BME280;30462;52.446;-1.930;2023-07-08T03:24:18;99726.62109;;;;
44734;BME280;30462;52.446;-1.930;2023-07-08T03:25:18;99728.97266;;;;
44734;BME280;30462;52.446;-1.930;2023-07-08T03:26:18;99724.69922;;;;
44734;BME280;30462;52.446;-1.930;2023-07-08T03:27:18;99721.20313;;;;
44734;BME280;30462;52.446;-1.930;2023-07-08T03:28:18;99721.14063;;;;
44734;BME280;30462;52.446;-1.930;2023-07-08T03:29:18;99719.95313;;;;
44734;BME280;30462;52.446;-1.930;2023-07-08T03:30:18;99718.30469;;;;
44734;BME280;30462;52.446;-1.930;2023-07-08T03:31:18;99719.04297;;;;
44734;BME280;30462;52.446;-1.930;2023-07-08T03:32:18;99721.78516;;;;
44734;BME280;30462;52.446;-1.930;2023-07-08T03:33:17;99728.18359;;;;
44734;BME280;30462;52.446;-1.930;2023-07-08T03:34:17;99733.25391;;;;
44734;BME280;30462;52.446;-1.930;2023-07-08T03:35:18;99735.42188;;;;
44734;BME280;30462;52.446;-1.930;2023-07-08T03:36:18;99735.67578;;;;
44734;BME280;30462;52.446;-1.930;2023-07-08T03:37:18;99734.19141;;;;
44734;BME280;30462;52.446;-1.930;2023-07-08T03:38:18;99733.75781;;;;
44734;BME280;30462;52.446;-1.930;2023-07-08T03:39:18;99736.21875;;;;
44734;BME280;30462;52.446;-1.930;2023-07-08T03:40:18;99733.53906;;;;
44734;BME280;30462;52.446;-1.930;2023-07-08T03:41:17;99733.45313;;;;
44734;BME280;30462;52.446;-1.930;2023-07-08T03:42:17;99736.95703;;;;
44734;BME280;30462;52.446;-1.930;2023-07-08T03:43:18;99741.16016;;;;
44734;BME280;30462;52.446;-1.930;2023-07-08T03:44:18;99749.71484;;;;
44734;BME280;30462;52.446;-1.930;2023-07-08T03:45:17;99760.11719;;;;
44734;BME280;30462;52.446;-1.930;2023-07-08T03:46:19;99756.51563;;;;
44734;BME280;30462;52.446;-1.930;2023-07-08T03:47:18;99743.60938;;;;
44734;BME280;30462;52.446;-1.930;2023-07-08T03:48:17;99745.8125;;;;
44734;BME280;30462;52.446;-1.930;2023-07-08T03:49:18;99748.34766;;;;
44734;BME280;30462;52.446;-1.930;2023-07-08T03:50:19;99739.53906;;;;
44734;BME280;30462;52.446;-1.930;2023-07-08T03:51:20;99740.49219;;;;
44734;BME280;30462;52.446;-1.930;2023-07-08T03:52:18;99739.71875;;;;
44734;BME280;30462;52.446;-1.930;2023-07-08T03:53:18;99746.59375;;;;
44734;BME280;30462;52.446;-1.930;2023-07-08T03:54:18;99749.75781;;;;
44734;BME280;30462;52.446;-1.930;2023-07-08T03:55:18;99748.51953;;;;
44734;BME280;30462;52.446;-1.930;2023-07-08T03:56:18;99748.83594;;;;
44734;BME280;30462;52.446;-1.930;2023-07-08T03:57:18;99750.6875;;;;
44734;BME280;30462;52.446;-1.930;2023-07-08T03:58:18;99751.47656;;;;
44734;BME280;30462;52.446;-1.930;2023-07-08T03:59:18;99751.49219;;;;
44734;BME280;30462;52.446;-1.930;2023-07-08T04:00:18;99751.39844;;;;
44734;BME280;30462;52.446;-1.930;2023-07-08T04:01:19;99749.35547;;;;
44734;BME280;30462;52.446;-1.930;2023-07-08T04:02:18;99746.24609;;;;
44734;BME280;30462;52.446;-1.930;2023-07-08T04:03:18;99750.63281;;;;
44734;BME280;30462;52.446;-1.930;2023-07-08T04:04:18;99751.85547;;;;
44734;BME280;30462;52.446;-1.930;2023-07-08T04:05:20;99747.89844;;;;
44734;BME280;30462;52.446;-1.930;2023-07-08T04:06:18;99744.44922;;;;
44734;BME280;30462;52.446;-1.930;2023-07-08T04:07:18;99742.54297;;;;
44734;BME280;30462;52.446;-1.930;2023-07-08T04:08:18;99740.75781;;;;
44734;BME280;30462;52.446;-1.930;2023-07-08T04:09:18;99738.24609;;;;
44734;BME280;30462;52.446;-1.930;2023-07-08T04:10:17;99738.94922;;;;
44734;BME280;30462;52.446;-1.930;2023-07-08T04:11:19;99739.27734;;;;
44734;BME280;30462;52.446;-1.930;2023-07-08T04:12:17;99738.21484;;;;
44734;BME280;30462;52.446;-1.930;2023-07-08T04:13:17;99738.79297;;;;
44734;BME280;30462;52.446;-1.930;2023-07-08T04:14:17;99744.17578;;;;
44734;BME280;30462;52.446;-1.930;2023-07-08T04:15:18;99740.85547;;;;
44734;BME280;30462;52.446;-1.930;2023-07-08T04:16:20;99738.79297;;;;
44734;BME280;30462;52.446;-1.930;2023-07-08T04:17:17;99738.45703;;;;
44734;BME280;30462;52.446;-1.930;2023-07-08T04:18:18;99737.75781;;;;
44734;BME280;30462;52.446;-1.930;2023-07-08T04:19:18;99733.85938;;;;
44734;BME280;30462;52.446;-1.930;2023-07-08T04:20:18;99732.94141;;;;
44734;BME280;30462;52.446;-1.930;2023-07-08T04:21:17;99737.47266;;;;
44734;BME280;30462;52.446;-1.930;2023-07-08T04:22:18;99733.91406;;;;
44734;BME280;30462;52.446;-1.930;2023-07-08T04:23:18;99737.12109;;;;
44734;BME280;30462;52.446;-1.930;2023-07-08T04:24:18;99739.74609;;;;
44734;BME280;30462;52.446;-1.930;2023-07-08T04:25:18;99738.09375;;;;
44734;BME280;30462;52.446;-1.930;2023-07-08T04:26:18;99737.99219;;;;
44734;BME280;30462;52.446;-1.930;2023-07-08T04:27:17;99733.39063;;;;
44734;BME280;30462;52.446;-1.930;2023-07-08T04:28:18;99732.73828;;;;
44734;BME280;30462;52.446;-1.930;2023-07-08T04:29:19;99740.53906;;;;
44734;BME280;30462;52.446;-1.930;2023-07-08T04:30:20;99741.76172;;;;
44734;BME280;30462;52.446;-1.930;2023-07-08T04:31:17;99741.11719;;;;
44734;BME280;30462;52.446;-1.930;2023-07-08T04:32:18;99746.28125;;;;
44734;BME280;30462;52.446;-1.930;2023-07-08T04:33:18;99750.94141;;;;
44734;BME280;30462;52.446;-1.930;2023-07-08T04:34:19;99748.19922;;;;
44734;BME280;30462;52.446;-1.930;2023-07-08T04:35:18;99743.44531;;;;
44734;BME280;30462;52.446;-1.930;2023-07-08T04:36:18;99748.58203;;;;
44734;BME280;30462;52.446;-1.930;2023-07-08T04:37:18;99749.82031;;;;
44734;BME280;30462;52.446;-1.930;2023-07-08T04:38:19;99743.94141;;;;
44734;BME280;30462;52.446;-1.930;2023-07-08T04:39:18;99748.67578;;;;
44734;BME280;30462;52.446;-1.930;2023-07-08T04:40:18;99754.05859;;;;
44734;BME280;30462;52.446;-1.930;2023-07-08T04:41:17;99752.37891;;;;
44734;BME280;30462;52.446;-1.930;2023-07-08T04:42:18;99749.42578;;;;
44734;BME280;30462;52.446;-1.930;2023-07-08T04:43:18;99750.53906;;;;
44734;BME280;30462;52.446;-1.930;2023-07-08T04:44:18;99750.9375;;;;
44734;BME280;30462;52.446;-1.930;2023-07-08T04:45:18;99751.68359;;;;
44734;BME280;30462;52.446;-1.930;2023-07-08T04:46:22;99747.0625;;;;
44734;BME280;30462;52.446;-1.930;2023-07-08T04:47:18;99745.42969;;;;
44734;BME280;30462;52.446;-1.930;2023-07-08T04:48:18;99748.08203;;;;
44734;BME280;30462;52.446;-1.930;2023-07-08T04:49:17;99749.08984;;;;
44734;BME280;30462;52.446;-1.930;2023-07-08T04:50:18;99753.34375;;;;
44734;BME280;30462;52.446;-1.930;2023-07-08T04:51:18;99755.3125;;;;
44734;BME280;30462;52.446;-1.930;2023-07-08T04:52:18;99756.76953;;;;
44734;BME280;30462;52.446;-1.930;2023-07-08T04:53:18;99761.39063;;;;
44734;BME280;30462;52.446;-1.930;2023-07-08T04:54:17;99762.57813;;;;
44734;BME280;30462;52.446;-1.930;2023-07-08T04:55:18;99766.50391;;;;
44734;BME280;30462;52.446;-1.930;2023-07-08T04:56:18;99766.14063;;;;
44734;BME280;30462;52.446;-1.930;2023-07-08T04:57:18;99769.28906;;;;
44734;BME280;30462;52.446;-1.930;2023-07-08T04:58:18;99772.08984;;;;
44734;BME280;30462;52.446;-1.930;2023-07-08T04:59:19;99769.25;;;;
44734;BME280;30462;52.446;-1.930;2023-07-08T05:00:18;99771.96875;;;;
44734;BME280;30462;52.446;-1.930;2023-07-08T05:01:17;99764.95703;;;;
44734;BME280;30462;52.446;-1.930;2023-07-08T05:02:17;99766.96094;;;;
44734;BME280;30462;52.446;-1.930;2023-07-08T05:03:18;99772.10156;;;;
44734;BME280;30462;52.446;-1.930;2023-07-08T05:04:19;99773.19141;;;;
44734;BME280;30462;52.446;-1.930;2023-07-08T05:05:18;99779.19922;;;;
44734;BME280;30462;52.446;-1.930;2023-07-08T05:06:18;99778.53516;;;;
44734;BME280;30462;52.446;-1.930;2023-07-08T05:07:18;99781.06641;;;;
44734;BME280;30462;52.446;-1.930;2023-07-08T05:08:18;99786.47656;;;;
44734;BME280;30462;52.446;-1.930;2023-07-08T05:09:18;99791.27734;;;;
44734;BME280;30462;52.446;-1.930;2023-07-08T05:10:18;99794.65234;;;;
44734;BME280;30462;52.446;-1.930;2023-07-08T05:11:18;99795.39844;;;;
44734;BME280;30462;52.446;-1.930;2023-07-08T05:12:18;99797.60938;;;;
44734;BME280;30462;52.446;-1.930;2023-07-08T05:13:17;99798.28906;;;;
44734;BME280;30462;52.446;-1.930;2023-07-08T05:14:18;99796.88281;;;;
44734;BME280;30462;52.446;-1.930;2023-07-08T05:15:18;99801.54688;;;;
44734;BME280;30462;52.446;-1.930;2023-07-08T05:16:17;99801.60156;;;;
44734;BME280;30462;52.446;-1.930;2023-07-08T05:17:19;99804.46875;;;;
44734;BME280;30462;52.446;-1.930;2023-07-08T05:18:18;99805.93359;;;;
44734;BME280;30462;52.446;-1.930;2023-07-08T05:19:18;99802.78906;;;;
44734;BME280;30462;52.446;-1.930;2023-07-08T05:20:18;99802.44922;;;;
44734;BME280;30462;52.446;-1.930;2023-07-08T05:21:18;99804.76563;;;;
44734;BME280;30462;52.446;-1.930;2023-07-08T05:22:18;99808.48828;;;;
44734;BME280;30462;52.446;-1.930;2023-07-08T05:23:18;99805.94531;;;;
44734;BME280;30462;52.446;-1.930;2023-07-08T05:24:18;99813.02344;;;;
44734;BME280;30462;52.446;-1.930;2023-07-08T05:25:18;99815.37891;;;;
44734;BME280;30462;52.446;-1.930;2023-07-08T05:26:18;99813.76172;;;;
44734;BME280;30462;52.446;-1.930;2023-07-08T05:27:17;99815.26953;;;;
44734;BME280;30462;52.446;-1.930;2023-07-08T05:28:18;99817.10547;;;;
44734;BME280;30462;52.446;-1.930;2023-07-08T05:29:18;99818.53516;;;;
44734;BME280;30462;52.446;-1.930;2023-07-08T05:30:18;99820.99609;;;;
44734;BME280;30462;52.446;-1.930;2023-07-08T05:31:18;99823.38281;;;;
44734;BME280;30462;52.446;-1.930;2023-07-08T05:32:18;99819.66406;;;;
44734;BME280;30462;52.446;-1.930;2023-07-08T05:33:18;99825.26563;;;;
44734;BME280;30462;52.446;-1.930;2023-07-08T05:34:18;99824.94141;;;;
44734;BME280;30462;52.446;-1.930;2023-07-08T05:35:17;99828.96094;;;;
44734;BME280;30462;52.446;-1.930;2023-07-08T05:36:18;99828.47656;;;;
44734;BME280;30462;52.446;-1.930;2023-07-08T05:37:18;99828.02344;;;;
44734;BME280;30462;52.446;-1.930;2023-07-08T05:38:18;99826.23047;;;;
44734;BME280;30462;52.446;-1.930;2023-07-08T05:39:18;99827.76953;;;;
44734;BME280;30462;52.446;-1.930;2023-07-08T05:40:18;99821.90234;;;;
44734;BME280;30462;52.446;-1.930;2023-07-08T05:41:17;99818.54688;;;;
44734;BME280;30462;52.446;-1.930;2023-07-08T05:42:19;99823.84766;;;;
44734;BME280;30462;52.446;-1.930;2023-07-08T05:43:18;99825.23047;;;;
44734;BME280;30462;52.446;-1.930;2023-07-08T05:44:18;99822.87891;;;;
44734;BME280;30462;52.446;-1.930;2023-07-08T05:45:17;99824.08984;;;;
44734;BME280;30462;52.446;-1.930;2023-07-08T05:46:17;99822.92188;;;;
44734;BME280;30462;52.446;-1.930;2023-07-08T05:47:18;99822.29297;;;;
44734;BME280;30462;52.446;-1.930;2023-07-08T05:48:18;99817.41406;;;;
44734;BME280;30462;52.446;-1.930;2023-07-08T05:49:18;99812.92969;;;;
44734;BME280;30462;52.446;-1.930;2023-07-08T05:50:18;99818.27344;;;;
44734;BME280;30462;52.446;-1.930;2023-07-08T05:51:18;99818.51563;;;;